createdAt,value
2017-09-04T00:01:40.151Z,6.90
2017-09-04T00:04:07.657Z,7.60
2017-09-04T00:06:35.167Z,7.03
2017-09-04T00:09:02.674Z,7.33
2017-09-04T00:11:30.200Z,7.67
2017-09-04T00:13:57.763Z,6.70
2017-09-04T00:16:25.268Z,7.00
2017-09-04T00:18:52.781Z,7.47
2017-09-04T00:21:20.328Z,7.00
2017-09-04T00:23:47.832Z,6.93
2017-09-04T00:26:15.357Z,6.60
2017-09-04T00:28:42.897Z,7.70
2017-09-04T00:31:10.384Z,6.90
2017-09-04T00:33:37.900Z,7.07
2017-09-04T00:36:05.427Z,7.07
2017-09-04T00:38:32.958Z,6.77
2017-09-04T00:41:00.452Z,6.80
2017-09-04T00:43:27.981Z,7.70
2017-09-04T00:45:55.507Z,7.10
2017-09-04T00:48:23.017Z,7.83
2017-09-04T00:50:50.534Z,7.27
2017-09-04T00:53:18.076Z,7.70
2017-09-04T00:55:45.573Z,7.10
2017-09-04T00:58:13.097Z,7.43
2017-09-04T01:00:40.594Z,7.37
2017-09-04T01:03:08.116Z,6.93
2017-09-04T01:05:35.686Z,7.90
2017-09-04T01:08:03.236Z,8.50
2017-09-04T01:10:30.759Z,6.60
2017-09-04T01:12:58.282Z,7.40
2017-09-04T01:15:25.791Z,7.70
2017-09-04T01:17:53.383Z,7.67
2017-09-04T01:20:21.030Z,8.17
2017-09-04T01:22:48.557Z,7.67
2017-09-04T01:25:16.088Z,8.20
2017-09-04T01:27:43.620Z,7.87
2017-09-04T01:30:11.135Z,7.80
2017-09-04T01:32:38.671Z,7.40
2017-09-04T01:35:06.219Z,7.60
2017-09-04T01:37:33.732Z,7.83
2017-09-04T01:40:01.238Z,8.87
2017-09-04T01:42:28.761Z,9.00
2017-09-04T01:44:56.261Z,8.73
2017-09-04T01:47:23.779Z,8.43
2017-09-04T01:49:51.321Z,8.67
2017-09-04T01:52:18.844Z,8.97
2017-09-04T01:54:46.355Z,7.60
2017-09-04T01:57:13.897Z,9.10
2017-09-04T01:59:41.412Z,7.80
2017-09-04T02:02:08.933Z,8.17
2017-09-04T02:04:36.515Z,8.50
2017-09-04T02:07:04.034Z,8.33
2017-09-04T02:09:32.324Z,8.87
2017-09-04T02:11:59.852Z,8.23
2017-09-04T02:14:27.367Z,8.63
2017-09-04T02:16:54.897Z,9.20
2017-09-04T02:19:22.455Z,8.33
2017-09-04T02:21:49.959Z,8.80
2017-09-04T02:24:17.464Z,8.67
2017-09-04T02:26:45.021Z,8.10
2017-09-04T02:29:12.529Z,8.70
2017-09-04T02:31:40.033Z,9.07
2017-09-04T02:34:07.604Z,8.57
2017-09-04T02:36:35.133Z,8.50
2017-09-04T02:39:02.637Z,9.07
2017-09-04T02:41:30.179Z,8.30
2017-09-04T02:43:58.466Z,8.80
2017-09-04T02:46:25.975Z,9.80
2017-09-04T02:48:53.492Z,8.23
2017-09-04T02:51:21.011Z,9.53
2017-09-04T02:53:48.516Z,8.53
2017-09-04T02:56:16.089Z,9.70
2017-09-04T02:58:43.632Z,8.87
2017-09-04T03:01:11.141Z,9.27
2017-09-04T03:03:38.696Z,9.30
2017-09-04T03:06:06.222Z,9.60
2017-09-04T03:08:33.783Z,10.20
2017-09-04T03:11:01.317Z,8.80
2017-09-04T03:13:28.841Z,10.13
2017-09-04T03:15:56.440Z,9.10
2017-09-04T03:18:24.024Z,8.80
2017-09-04T03:20:51.556Z,9.83
2017-09-04T03:23:19.834Z,9.30
2017-09-04T03:25:48.135Z,9.60
2017-09-04T03:28:15.666Z,10.57
2017-09-04T03:30:43.191Z,9.53
2017-09-04T03:33:10.756Z,10.13
2017-09-04T03:35:38.277Z,9.57
2017-09-04T03:38:05.805Z,10.47
2017-09-04T03:40:33.329Z,9.80
2017-09-04T03:43:00.852Z,10.37
2017-09-04T03:45:28.369Z,9.83
2017-09-04T03:47:55.909Z,11.00
2017-09-04T03:50:23.428Z,9.20
2017-09-04T03:52:50.949Z,10.23
2017-09-04T03:55:18.499Z,10.10
2017-09-04T03:57:46.005Z,9.50
2017-09-04T04:00:13.540Z,11.03
2017-09-04T04:02:41.084Z,10.57
2017-09-04T04:05:08.616Z,10.97
2017-09-04T04:07:36.138Z,9.87
2017-09-04T04:10:03.681Z,9.63
2017-09-04T04:12:31.189Z,9.40
2017-09-04T04:14:58.697Z,10.30
2017-09-04T04:17:26.221Z,9.30
2017-09-04T04:19:53.732Z,10.23
2017-09-04T04:22:21.237Z,10.40
2017-09-04T04:24:48.769Z,9.80
2017-09-04T04:27:16.280Z,10.07
2017-09-04T04:29:43.806Z,10.20
2017-09-04T04:32:11.343Z,10.57
2017-09-04T04:34:38.898Z,10.23
2017-09-04T04:37:06.422Z,10.47
2017-09-04T04:39:33.964Z,9.53
2017-09-04T04:42:01.483Z,9.97
2017-09-04T04:44:28.999Z,9.70
2017-09-04T04:46:56.663Z,10.23
2017-09-04T04:49:24.165Z,10.90
2017-09-04T04:51:51.685Z,9.87
2017-09-04T04:54:19.220Z,9.50
2017-09-04T04:56:47.512Z,9.57
2017-09-04T04:59:15.017Z,9.50
2017-09-04T05:01:42.541Z,8.87
2017-09-04T05:04:10.096Z,10.23
2017-09-04T05:06:37.623Z,9.40
2017-09-04T05:09:05.936Z,9.17
2017-09-04T05:11:33.448Z,9.63
2017-09-04T05:14:01.072Z,9.77
2017-09-04T05:16:28.617Z,9.30
2017-09-04T05:18:56.128Z,8.93
2017-09-04T05:21:23.652Z,9.43
2017-09-04T05:23:51.199Z,9.10
2017-09-04T05:26:18.734Z,9.67
2017-09-04T05:28:47.010Z,9.63
2017-09-04T05:31:15.322Z,9.70
2017-09-04T05:33:42.842Z,11.23
2017-09-04T05:36:10.363Z,9.67
2017-09-04T05:38:37.877Z,9.50
2017-09-04T05:41:05.401Z,9.03
2017-09-04T05:43:32.916Z,9.47
2017-09-04T05:46:00.458Z,9.80
2017-09-04T05:48:27.974Z,8.73
2017-09-04T05:50:55.509Z,10.13
2017-09-04T05:53:23.065Z,10.80
2017-09-04T05:55:50.568Z,9.50
2017-09-04T05:58:18.072Z,9.33
2017-09-04T06:00:45.619Z,10.47
2017-09-04T06:03:13.139Z,8.97
2017-09-04T06:05:41.107Z,9.43
2017-09-04T06:08:08.637Z,9.40
2017-09-04T06:10:36.137Z,10.20
2017-09-04T06:13:03.637Z,9.87
2017-09-04T06:15:31.179Z,9.17
2017-09-04T06:17:58.824Z,9.27
2017-09-04T06:20:26.327Z,9.03
2017-09-04T06:22:53.843Z,9.20
2017-09-04T06:25:21.407Z,8.80
2017-09-04T06:27:48.944Z,8.70
2017-09-04T06:30:16.461Z,9.33
2017-09-04T06:32:43.990Z,8.10
2017-09-04T06:35:11.508Z,8.63
2017-09-04T06:37:39.185Z,9.13
2017-09-04T06:40:06.712Z,10.20
2017-09-04T06:42:34.264Z,8.50
2017-09-04T06:47:36.172Z,8.40
2017-09-04T06:50:03.674Z,7.70
2017-09-04T06:52:31.193Z,7.57
2017-09-04T06:54:58.739Z,7.87
2017-09-04T06:57:26.362Z,7.33
2017-09-04T06:59:53.883Z,8.23
2017-09-04T07:02:22.189Z,8.63
2017-09-04T07:04:49.694Z,8.32
2017-09-04T07:07:17.227Z,8.55
2017-09-04T07:09:45.134Z,8.40
2017-09-04T07:12:12.665Z,8.03
2017-09-04T07:14:40.185Z,8.23
2017-09-04T07:17:07.735Z,8.13
2017-09-04T07:19:35.233Z,7.70
2017-09-04T07:22:02.778Z,6.90
2017-09-04T07:24:30.300Z,7.50
2017-09-04T07:26:57.807Z,7.90
2017-09-04T07:29:25.307Z,7.23
2017-09-04T07:31:52.867Z,7.47
2017-09-04T07:34:20.387Z,6.93
2017-09-04T07:36:47.903Z,6.50
2017-09-04T07:39:15.444Z,7.20
2017-09-04T07:41:43.006Z,7.70
2017-09-04T07:44:10.524Z,7.40
2017-09-04T07:46:38.072Z,6.63
2017-09-04T07:49:05.561Z,6.60
2017-09-04T07:51:33.052Z,8.10
2017-09-04T07:54:00.600Z,7.63
2017-09-04T07:56:28.110Z,6.87
2017-09-04T07:58:55.650Z,7.33
2017-09-04T08:01:23.199Z,7.43
2017-09-04T08:03:50.721Z,6.77
2017-09-04T08:06:18.224Z,7.70
2017-09-04T08:08:45.756Z,6.93
2017-09-04T08:11:13.272Z,5.83
2017-09-04T08:13:40.803Z,7.07
2017-09-04T08:16:09.725Z,5.70
2017-09-04T08:18:37.409Z,5.80
2017-09-04T08:21:05.014Z,6.50
2017-09-04T08:23:32.573Z,5.50
2017-09-04T08:26:00.087Z,5.70
2017-09-04T08:28:27.702Z,5.40
2017-09-04T08:30:55.243Z,5.20
2017-09-04T08:33:23.520Z,5.83
2017-09-04T08:35:51.043Z,4.73
2017-09-04T08:38:19.016Z,5.07
2017-09-04T08:40:46.540Z,5.30
2017-09-04T08:43:14.063Z,5.20
2017-09-04T08:45:41.595Z,5.30
2017-09-04T08:48:09.105Z,5.80
2017-09-04T08:50:36.601Z,5.10
2017-09-04T08:53:04.134Z,5.27
2017-09-04T08:55:31.659Z,5.03
2017-09-04T08:57:59.231Z,5.33
2017-09-04T09:00:26.849Z,4.47
2017-09-04T09:02:54.373Z,5.10
2017-09-04T09:05:21.889Z,5.00
2017-09-04T09:07:49.431Z,5.00
2017-09-04T09:10:16.986Z,4.33
2017-09-04T09:12:44.524Z,5.27
2017-09-04T09:15:12.040Z,5.17
2017-09-04T09:17:39.585Z,4.70
2017-09-04T09:20:07.202Z,5.60
2017-09-04T09:22:34.728Z,4.57
2017-09-04T09:25:02.282Z,5.10
2017-09-04T09:27:29.808Z,4.20
2017-09-04T09:29:57.304Z,4.50
2017-09-04T09:32:24.845Z,5.10
2017-09-04T09:34:52.346Z,4.27
2017-09-04T09:37:19.851Z,3.43
2017-09-04T09:39:47.584Z,4.07
2017-09-04T09:42:15.201Z,4.20
2017-09-04T09:44:42.717Z,3.43
2017-09-04T09:47:10.208Z,4.17
2017-09-04T09:49:37.737Z,3.70
2017-09-04T09:52:05.262Z,3.67
2017-09-04T09:54:32.770Z,3.47
2017-09-04T09:57:00.309Z,4.13
2017-09-04T09:59:27.812Z,3.47
2017-09-04T10:01:56.093Z,3.63
2017-09-04T10:04:23.624Z,3.40
2017-09-04T10:06:51.161Z,3.50
2017-09-04T10:09:18.673Z,4.87
2017-09-04T10:11:46.268Z,3.80
2017-09-04T10:14:13.774Z,4.50
2017-09-04T10:16:41.335Z,3.53
2017-09-04T10:19:08.893Z,3.37
2017-09-04T10:21:36.397Z,3.93
2017-09-04T10:24:03.914Z,3.60
2017-09-04T10:26:31.444Z,3.67
2017-09-04T10:28:58.988Z,3.60
2017-09-04T10:31:26.539Z,2.80
2017-09-04T10:33:54.187Z,3.40
2017-09-04T10:36:21.694Z,3.60
2017-09-04T10:38:49.239Z,3.33
2017-09-04T10:41:16.732Z,4.00
2017-09-04T10:43:44.293Z,3.53
2017-09-04T10:46:11.786Z,3.83
2017-09-04T10:48:39.284Z,3.83
2017-09-04T10:51:06.809Z,3.43
2017-09-04T10:53:34.327Z,4.23
2017-09-04T10:56:01.822Z,4.40
2017-09-04T10:58:29.342Z,3.50
2017-09-04T11:00:57.621Z,4.00
2017-09-04T11:03:25.183Z,4.50
2017-09-04T11:05:52.742Z,4.40
2017-09-04T11:08:20.265Z,3.77
2017-09-04T11:10:47.769Z,4.80
2017-09-04T11:13:15.325Z,4.27
2017-09-04T11:15:42.848Z,3.93
2017-09-04T11:18:10.361Z,4.80
2017-09-04T11:20:37.875Z,3.23
2017-09-04T11:23:05.366Z,3.93
2017-09-04T11:25:32.884Z,3.40
2017-09-04T11:28:00.417Z,3.70
2017-09-04T11:30:27.930Z,3.67
2017-09-04T11:32:55.456Z,3.80
2017-09-04T11:35:22.987Z,3.57
2017-09-04T11:37:50.509Z,3.87
2017-09-04T11:40:18.010Z,3.60
2017-09-04T11:42:45.588Z,4.23
2017-09-04T11:45:13.103Z,3.50
2017-09-04T11:47:40.657Z,3.63
2017-09-04T11:50:08.211Z,3.50
2017-09-04T11:52:35.796Z,3.00
2017-09-04T11:55:03.299Z,3.20
2017-09-04T11:57:30.824Z,2.70
2017-09-04T11:59:58.348Z,2.97
2017-09-04T12:02:25.865Z,3.27
2017-09-04T12:04:53.383Z,3.60
2017-09-04T12:07:20.891Z,3.50
2017-09-04T12:09:48.391Z,3.80
2017-09-04T12:12:15.935Z,4.07
2017-09-04T12:14:43.459Z,3.90
2017-09-04T12:17:10.957Z,3.40
2017-09-04T12:19:38.481Z,3.73
2017-09-04T12:22:05.993Z,3.73
2017-09-04T12:24:33.493Z,3.90
2017-09-04T12:27:01.033Z,3.27
2017-09-04T12:29:28.546Z,3.23
2017-09-04T12:31:56.813Z,3.80
2017-09-04T12:34:24.354Z,3.77
2017-09-04T12:36:51.864Z,4.10
2017-09-04T12:39:19.372Z,4.37
2017-09-04T12:41:46.893Z,4.60
2017-09-04T12:44:14.397Z,5.20
2017-09-04T12:46:41.889Z,4.83
2017-09-04T12:49:09.449Z,5.43
2017-09-04T12:51:36.952Z,5.73
2017-09-04T12:54:04.438Z,5.23
2017-09-04T12:56:32.051Z,4.50
2017-09-04T12:58:59.581Z,6.10
2017-09-04T13:01:27.100Z,5.37
2017-09-04T13:03:54.599Z,4.87
2017-09-04T13:06:22.137Z,4.90
2017-09-04T13:08:49.663Z,4.67
2017-09-04T13:11:23.040Z,4.07
2017-09-04T13:13:56.371Z,4.43
2017-09-04T13:16:29.775Z,5.33
2017-09-04T13:19:02.961Z,4.53
2017-09-04T13:21:36.293Z,4.70
2017-09-04T13:27:23.035Z,5.07
2017-09-04T13:29:56.128Z,5.30
2017-09-04T13:32:29.423Z,4.90
2017-09-04T13:35:02.688Z,4.70
2017-09-04T13:37:31.152Z,6.30
2017-09-04T13:40:04.440Z,6.27
2017-09-04T13:42:37.736Z,7.30
2017-09-04T13:45:10.890Z,7.50
2017-09-04T13:47:44.044Z,8.37
2017-09-04T13:50:31.275Z,7.67
2017-09-04T13:53:08.732Z,7.93
2017-09-04T13:55:52.161Z,8.17
2017-09-04T13:58:39.599Z,8.00
2017-09-04T14:01:25.733Z,8.63
2017-09-04T14:04:08.961Z,8.30
2017-09-04T14:06:43.106Z,8.50
2017-09-04T14:09:28.487Z,8.30
2017-09-04T14:12:01.602Z,8.60
2017-09-04T14:14:35.648Z,8.00
2017-09-04T14:17:14.001Z,7.13
2017-09-04T14:19:41.533Z,7.50
2017-09-04T14:22:09.047Z,8.60
2017-09-04T14:24:36.571Z,9.23
2017-09-04T14:27:04.139Z,9.60
2017-09-04T14:29:31.697Z,9.90
2017-09-04T14:31:59.223Z,9.20
2017-09-04T14:34:26.754Z,9.20
2017-09-04T14:36:54.254Z,8.77
2017-09-04T14:39:21.763Z,8.90
2017-09-04T14:41:49.320Z,8.37
2017-09-04T14:44:17.280Z,9.27
2017-09-04T14:46:47.224Z,7.90
2017-09-04T14:49:14.769Z,9.00
2017-09-04T14:51:42.280Z,8.23
2017-09-04T14:54:09.829Z,8.50
2017-09-04T14:56:37.396Z,9.53
2017-09-04T14:59:04.908Z,7.70
2017-09-04T15:01:32.437Z,9.13
2017-09-04T15:03:59.960Z,7.90
2017-09-04T15:06:27.483Z,9.20
2017-09-04T15:08:54.985Z,9.27
2017-09-04T15:11:22.508Z,10.00
2017-09-04T15:13:50.024Z,10.80
2017-09-04T15:16:18.314Z,9.57
2017-09-04T15:18:45.869Z,10.20
2017-09-04T15:21:13.368Z,10.63
2017-09-04T15:23:40.869Z,10.83
2017-09-04T15:26:08.388Z,9.70
2017-09-04T15:28:35.911Z,11.30
2017-09-04T15:31:03.425Z,11.17
2017-09-04T15:33:30.957Z,11.40
2017-09-04T15:35:58.457Z,10.90
2017-09-04T15:38:25.960Z,11.53
2017-09-04T15:40:53.506Z,12.10
2017-09-04T15:43:21.032Z,14.10
2017-09-04T15:45:48.552Z,13.07
2017-09-04T15:48:16.120Z,13.40
2017-09-04T15:50:43.638Z,13.70
2017-09-04T15:53:11.172Z,14.80
2017-09-04T15:55:38.742Z,16.10
2017-09-04T15:58:06.323Z,16.67
2017-09-04T16:00:33.853Z,18.27
2017-09-04T16:03:01.410Z,16.73
2017-09-04T16:08:33.482Z,17.20
2017-09-04T16:11:01.045Z,18.53
2017-09-04T16:13:29.032Z,18.37
2017-09-04T16:16:07.429Z,19.37
2017-09-04T16:18:35.601Z,17.70
2017-09-04T16:21:06.736Z,17.93
2017-09-04T16:29:39.755Z,19.73
2017-09-04T16:32:09.794Z,20.67
2017-09-04T16:34:53.045Z,21.33
2017-09-04T16:37:20.580Z,22.07
2017-09-04T16:39:48.227Z,22.77
2017-09-04T16:42:18.633Z,23.03
2017-09-04T16:44:47.112Z,22.57
2017-09-04T16:47:32.371Z,23.50
2017-09-04T16:49:59.904Z,22.87
2017-09-04T16:52:30.274Z,23.20
2017-09-04T16:54:58.436Z,22.70
2017-09-04T16:57:26.633Z,24.30
2017-09-04T16:59:54.175Z,24.13
2017-09-04T17:02:22.493Z,24.00
2017-09-04T17:04:50.066Z,22.90
2017-09-04T17:07:17.603Z,23.20
2017-09-04T17:09:55.073Z,22.67
2017-09-04T17:12:23.192Z,22.43
2017-09-04T17:14:50.701Z,22.70
2017-09-04T17:17:19.838Z,21.80
2017-09-04T17:19:52.056Z,23.27
2017-09-04T17:25:17.162Z,21.27
2017-09-04T17:27:44.721Z,21.63
2017-09-04T17:30:12.251Z,21.87
2017-09-04T17:32:39.910Z,21.47
2017-09-04T17:35:07.487Z,20.87
2017-09-04T17:37:35.065Z,21.87
2017-09-04T17:40:02.669Z,21.80
2017-09-04T17:42:30.228Z,20.03
2017-09-04T17:44:57.745Z,23.53
2017-09-04T17:47:25.244Z,20.90
2017-09-04T17:49:52.813Z,22.23
2017-09-04T17:52:20.353Z,20.83
2017-09-04T17:54:47.995Z,21.67
2017-09-04T17:57:15.601Z,19.67
2017-09-04T17:59:43.257Z,22.43
2017-09-04T18:02:10.804Z,20.37
2017-09-04T18:04:38.341Z,20.87
2017-09-04T18:07:05.979Z,20.50
2017-09-04T18:09:33.535Z,20.57
2017-09-04T18:12:01.078Z,20.00
2017-09-04T18:14:28.637Z,21.42
2017-09-04T18:16:56.285Z,21.80
2017-09-04T18:19:23.878Z,21.40
2017-09-04T18:21:51.589Z,20.60
2017-09-04T18:24:19.140Z,19.70
2017-09-04T18:26:47.490Z,20.83
2017-09-04T18:29:15.078Z,19.90
2017-09-04T18:31:43.365Z,20.60
2017-09-04T18:34:10.943Z,20.77
2017-09-04T18:36:38.823Z,20.57
2017-09-04T18:39:06.677Z,21.47
2017-09-04T18:41:34.300Z,21.20
2017-09-04T18:44:01.916Z,19.80
2017-09-04T18:46:29.539Z,20.70
2017-09-04T18:48:57.107Z,20.90
2017-09-04T18:51:24.782Z,22.63
2017-09-04T18:53:52.397Z,22.83
2017-09-04T18:56:20.053Z,21.50
2017-09-04T18:58:47.710Z,22.60
2017-09-04T19:01:15.431Z,24.13
2017-09-04T19:03:43.016Z,24.00
2017-09-04T19:06:10.571Z,23.20
2017-09-04T19:08:38.152Z,23.43
2017-09-04T19:11:05.736Z,23.23
2017-09-04T19:13:33.377Z,24.90
2017-09-04T19:16:00.965Z,23.00
2017-09-04T19:18:28.550Z,25.47
2017-09-04T19:20:56.149Z,26.07
2017-09-04T19:23:23.752Z,23.57
2017-09-04T19:25:51.543Z,24.20
2017-09-04T19:28:19.142Z,22.27
2017-09-04T19:30:47.485Z,25.77
2017-09-04T19:33:15.024Z,22.40
2017-09-04T19:35:42.552Z,22.17
2017-09-04T19:38:10.133Z,23.83
2017-09-04T19:40:37.720Z,23.87
2017-09-04T19:43:05.246Z,24.17
2017-09-04T19:45:32.840Z,24.20
2017-09-04T19:48:00.422Z,22.63
2017-09-04T19:50:27.958Z,23.30
2017-09-04T19:52:55.505Z,22.90
2017-09-04T19:55:23.077Z,21.57
2017-09-04T19:57:50.615Z,20.13
2017-09-04T20:00:18.143Z,20.80
2017-09-04T20:02:45.705Z,22.20
2017-09-04T20:05:13.234Z,20.13
2017-09-04T20:07:40.760Z,21.90
2017-09-04T20:10:08.298Z,22.57
2017-09-04T20:12:35.794Z,21.40
2017-09-04T20:15:03.309Z,21.95
2017-09-04T20:17:30.855Z,20.37
2017-09-04T20:19:58.780Z,21.07
2017-09-04T20:22:26.373Z,20.20
2017-09-04T20:24:53.903Z,20.60
2017-09-04T20:27:21.416Z,22.00
2017-09-04T20:29:48.980Z,21.10
2017-09-04T20:32:16.517Z,21.40
2017-09-04T20:34:44.139Z,22.43
2017-09-04T20:37:11.704Z,21.97
2017-09-04T20:39:39.254Z,21.97
2017-09-04T20:42:06.787Z,20.97
2017-09-04T20:44:34.337Z,21.50
2017-09-04T20:47:01.861Z,23.27
2017-09-04T20:49:29.395Z,20.80
2017-09-04T20:51:56.935Z,22.47
2017-09-04T20:54:24.477Z,22.80
2017-09-04T20:56:52.771Z,23.73
2017-09-04T20:59:20.330Z,22.20
2017-09-04T21:01:47.855Z,23.00
2017-09-04T21:04:15.444Z,23.00
2017-09-04T21:06:43.001Z,22.63
2017-09-04T21:09:10.559Z,22.43
2017-09-04T21:11:38.078Z,22.43
2017-09-04T21:14:05.606Z,23.27
2017-09-04T21:16:33.123Z,22.43
2017-09-04T21:19:00.671Z,23.77
2017-09-04T21:21:28.226Z,23.83
2017-09-04T21:23:55.772Z,21.57
2017-09-04T21:26:23.307Z,20.63
2017-09-04T21:28:50.880Z,21.27
2017-09-04T21:31:18.492Z,20.80
2017-09-04T21:33:46.015Z,20.53
2017-09-04T21:36:13.517Z,20.87
2017-09-04T21:38:41.096Z,20.20
2017-09-04T21:41:08.632Z,18.40
2017-09-04T21:43:36.168Z,20.47
2017-09-04T21:46:03.712Z,18.50
2017-09-04T21:48:31.242Z,18.90
2017-09-04T21:50:58.771Z,18.07
2017-09-04T21:53:26.323Z,17.97
2017-09-04T21:55:53.824Z,18.53
2017-09-04T21:58:21.352Z,18.07
2017-09-04T22:00:50.735Z,16.27
2017-09-04T22:03:18.263Z,17.20
2017-09-04T22:05:45.796Z,17.77
2017-09-04T22:08:13.325Z,16.40
2017-09-04T22:10:40.853Z,17.03
2017-09-04T22:13:08.354Z,17.33
2017-09-04T22:15:35.869Z,16.43
2017-09-04T22:18:03.407Z,14.90
2017-09-04T22:20:30.942Z,15.20
2017-09-04T22:22:58.512Z,15.90
2017-09-04T22:25:26.035Z,16.97
2017-09-04T22:27:54.333Z,16.10
2017-09-04T22:30:21.873Z,16.10
2017-09-04T22:32:49.385Z,15.93
2017-09-04T22:35:17.546Z,14.00
2017-09-04T22:37:45.072Z,16.53
2017-09-04T22:40:12.604Z,15.97
2017-09-04T22:42:40.144Z,16.20
2017-09-04T22:45:07.657Z,15.33
2017-09-04T22:47:35.275Z,16.43
2017-09-04T22:50:02.809Z,15.73
2017-09-04T22:52:30.308Z,16.00
2017-09-04T22:54:57.823Z,14.90
2017-09-04T22:57:25.353Z,15.50
2017-09-04T22:59:52.875Z,14.77
2017-09-04T23:02:20.399Z,14.00
2017-09-04T23:04:47.954Z,15.30
2017-09-04T23:07:15.472Z,14.83
2017-09-04T23:09:42.993Z,13.43
2017-09-04T23:12:10.538Z,13.57
2017-09-04T23:14:38.046Z,13.47
2017-09-04T23:17:05.560Z,12.40
2017-09-04T23:19:33.110Z,12.40
2017-09-04T23:22:00.634Z,13.17
2017-09-04T23:24:28.166Z,11.50
2017-09-04T23:26:55.715Z,12.03
2017-09-04T23:29:23.238Z,12.43
2017-09-04T23:31:50.743Z,11.90
2017-09-04T23:34:18.304Z,11.87
2017-09-04T23:36:45.811Z,12.73
2017-09-04T23:39:13.321Z,11.30
2017-09-04T23:41:40.879Z,11.77
2017-09-04T23:44:08.404Z,11.93
2017-09-04T23:46:35.924Z,10.50
2017-09-04T23:49:03.484Z,10.20
2017-09-04T23:51:31.006Z,11.57
2017-09-04T23:53:58.523Z,11.07
2017-09-04T23:56:26.081Z,11.77
2017-09-04T23:58:53.600Z,11.27
